KCOF/COF METAR and TAF weather

Enter ICAO airport designator
Station Type Date Time Source
KCOF METAR 2019/09/21 21:56 UTC NOAA

KCOF 212156Z AUTO 07016G20KT 10SM CLR 28/22 A3010 RMK AO2 SLP197 T02770215 $


Station Type Date Time Source
KCOF Decoded METAR 2019/09/21 21:56 UTC NOAA

Cocoa / Patrick Air Force Base, FL, United States (KCOF) 28-14N 080-36W 3M
Sep 21, 2019 - 05:56 PM EDT / 2019.09.21 2156 UTC
Wind: from the ENE (070 degrees) at 18 MPH (16 KT) gusting to 23 MPH (20 KT):0
Visibility: 10 mile(s):0
Sky conditions: clear
Temperature: 81.9 F (27.7 C)
Dew Point: 70.7 F (21.5 C)
Relative Humidity: 69%
Pressure (altimeter): 30.1 in. Hg (1019 hPa)
ob: KCOF 212156Z AUTO 07016G20KT 10SM CLR 28/22 A3010 RMK AO2 SLP197 T02770215
cycle: 22

Station Type Date Time Source
KCOF TAF 2019/09/21 18:57 UTC NOAA

TAF TAF KCOF 211800Z 2118/2224 07012G20KT 9999 FEW035 QNH3008INS
BECMG 2205/2206 07012G18KT 9999 SCT030 QNH3006INS
BECMG 2214/2215 07015G20KT 9999 SCT035 QNH3004INS TX29/2118Z TN26/2210Z LAST NO
AMDS AFT 2121 NEXT 2210

Example: see airport list